createdAt,value
2018-11-23T00:00:20.365Z,30.70
2018-11-23T00:05:18.267Z,26.57
2018-11-23T00:10:16.973Z,32.03
2018-11-23T00:15:17.466Z,26.80
2018-11-23T00:20:16.253Z,30.40
2018-11-23T00:25:17.931Z,28.97
2018-11-23T00:30:18.312Z,27.90
2018-11-23T00:35:17.443Z,27.60
2018-11-23T00:40:22.180Z,30.70
2018-11-23T00:45:19.668Z,28.20
2018-11-23T00:50:18.372Z,30.97
2018-11-23T00:55:16.883Z,28.13
2018-11-23T01:00:33.135Z,34.47
2018-11-23T01:05:30.581Z,33.00
2018-11-23T01:10:28.860Z,32.93
2018-11-23T01:15:26.299Z,31.00
2018-11-23T01:20:24.937Z,35.10
2018-11-23T01:25:23.233Z,30.20
2018-11-23T01:30:23.053Z,33.37
2018-11-23T01:35:20.502Z,23.30
2018-11-23T01:40:23.267Z,34.87
2018-11-23T01:45:20.781Z,28.37
2018-11-23T01:50:19.611Z,28.00
2018-11-23T01:55:17.843Z,33.57
2018-11-23T02:00:20.074Z,29.40
2018-11-23T02:05:17.545Z,26.03
2018-11-23T02:10:16.049Z,30.43
2018-11-23T02:15:15.184Z,35.63
2018-11-23T02:20:14.194Z,32.87
2018-11-23T02:25:11.689Z,24.80
2018-11-23T02:30:12.775Z,29.80
2018-11-23T02:35:10.509Z,27.70
2018-11-23T02:40:09.116Z,29.27
2018-11-23T02:45:08.564Z,24.73
2018-11-23T02:50:06.312Z,29.20
2018-11-23T02:55:04.365Z,35.67
2018-11-23T03:00:09.892Z,29.57
2018-11-23T03:05:08.820Z,29.23
2018-11-23T03:10:07.665Z,34.23
2018-11-23T03:15:06.044Z,27.73
2018-11-23T03:20:03.738Z,35.00
2018-11-23T03:25:01.172Z,34.57
2018-11-23T03:29:59.969Z,35.47
2018-11-23T03:34:57.511Z,34.80
2018-11-23T03:39:55.115Z,31.97
2018-11-23T03:44:52.513Z,33.37
2018-11-23T03:49:49.961Z,35.97
2018-11-23T03:54:47.383Z,37.53
2018-11-23T03:59:52.241Z,35.57
2018-11-23T04:04:49.722Z,37.43
2018-11-23T04:09:47.241Z,38.67
2018-11-23T04:14:44.636Z,34.73
2018-11-23T04:19:42.045Z,40.97
2018-11-23T04:24:39.441Z,41.37
2018-11-23T04:29:41.316Z,38.43
2018-11-23T04:34:38.797Z,42.83
2018-11-23T04:39:36.260Z,45.17
2018-11-23T04:44:33.660Z,38.90
2018-11-23T04:49:31.069Z,41.13
2018-11-23T04:54:28.487Z,38.53
2018-11-23T04:59:34.736Z,39.40
2018-11-23T05:04:32.197Z,43.70
2018-11-23T05:09:29.612Z,35.60
2018-11-23T05:14:27.030Z,42.37
2018-11-23T05:19:24.454Z,38.10
2018-11-23T05:24:21.904Z,38.73
2018-11-23T05:29:26.784Z,37.10
2018-11-23T05:34:24.287Z,41.00
2018-11-23T05:39:21.691Z,37.13
2018-11-23T05:44:19.102Z,44.77
2018-11-23T05:49:16.524Z,43.37
2018-11-23T05:54:14.003Z,36.63
2018-11-23T05:59:14.719Z,42.00
2018-11-23T06:04:12.396Z,44.27
2018-11-23T06:09:09.829Z,42.63
2018-11-23T06:14:07.305Z,38.67
2018-11-23T06:19:04.784Z,51.07
2018-11-23T06:24:02.257Z,46.97
2018-11-23T06:28:59.760Z,45.43
2018-11-23T06:33:57.228Z,46.97
2018-11-23T06:38:54.639Z,52.13
2018-11-23T06:43:52.411Z,43.93
2018-11-23T06:49:04.208Z,43.20
2018-11-23T06:54:01.861Z,55.63
2018-11-23T06:58:59.438Z,59.53
2018-11-23T07:03:56.920Z,64.83
2018-11-23T07:08:54.359Z,67.13
2018-11-23T07:13:52.114Z,78.90
2018-11-23T07:18:49.577Z,64.17
2018-11-23T07:23:47.008Z,58.17
2018-11-23T07:28:44.488Z,53.63
2018-11-23T07:33:41.952Z,61.70
2018-11-23T07:38:39.537Z,58.23
2018-11-23T07:43:36.977Z,49.33
2018-11-23T07:48:34.493Z,50.40
2018-11-23T07:53:32.029Z,49.03
2018-11-23T07:58:29.510Z,54.83
2018-11-23T08:03:26.986Z,53.97
2018-11-23T08:08:24.434Z,47.07
2018-11-23T08:13:21.955Z,54.37
2018-11-23T08:18:19.454Z,57.83
2018-11-23T08:23:18.427Z,50.17
2018-11-23T08:28:16.013Z,48.37
2018-11-23T08:33:13.685Z,51.33
2018-11-23T08:38:11.153Z,54.97
2018-11-23T08:43:08.631Z,51.17
2018-11-23T08:48:06.085Z,58.43
2018-11-23T08:53:03.698Z,56.27
2018-11-23T08:58:01.190Z,47.73
2018-11-23T09:03:00.146Z,53.77
2018-11-23T09:08:01.862Z,51.90
2018-11-23T09:13:06.689Z,52.40
2018-11-23T09:18:04.484Z,46.67
2018-11-23T09:23:01.961Z,52.03
2018-11-23T09:27:59.420Z,51.30
2018-11-23T09:32:57.469Z,57.07
2018-11-23T09:37:54.985Z,50.43
2018-11-23T09:42:52.645Z,54.13
2018-11-23T09:47:51.610Z,55.00
2018-11-23T09:52:50.512Z,48.70
2018-11-23T09:57:47.982Z,43.60
2018-11-23T10:02:46.216Z,48.27
2018-11-23T10:07:45.201Z,48.73
2018-11-23T10:12:42.945Z,52.67
2018-11-23T10:17:40.693Z,52.20
2018-11-23T10:22:38.336Z,41.27
2018-11-23T10:27:35.793Z,53.47
2018-11-23T10:32:33.279Z,49.30
2018-11-23T10:37:30.761Z,52.23
2018-11-23T10:42:29.052Z,50.10
2018-11-23T10:47:26.511Z,47.63
2018-11-23T10:52:23.983Z,52.87
2018-11-23T10:57:21.406Z,51.90
2018-11-23T11:02:24.605Z,53.40
2018-11-23T11:07:22.054Z,41.23
2018-11-23T11:12:19.535Z,52.40
2018-11-23T11:17:16.984Z,45.83
2018-11-23T11:22:14.467Z,38.90
2018-11-23T11:27:11.936Z,49.67
2018-11-23T11:32:09.462Z,44.97
2018-11-23T11:37:06.911Z,43.53
2018-11-23T11:42:04.500Z,51.37
2018-11-23T11:47:02.260Z,60.00
2018-11-23T11:51:59.711Z,46.13
2018-11-23T11:56:57.154Z,42.80
2018-11-23T12:01:54.683Z,38.70
2018-11-23T12:06:52.116Z,42.03
2018-11-23T12:11:49.598Z,39.00
2018-11-23T12:16:47.117Z,42.97
2018-11-23T12:21:44.601Z,47.43
2018-11-23T12:26:42.661Z,41.77
2018-11-23T12:31:40.214Z,50.23
2018-11-23T12:36:37.693Z,42.77
2018-11-23T12:41:35.147Z,39.57
2018-11-23T12:46:32.604Z,34.53
2018-11-23T12:51:30.091Z,40.43
2018-11-23T12:56:27.702Z,43.63
2018-11-23T13:01:25.272Z,37.03
2018-11-23T13:06:22.952Z,47.47
2018-11-23T13:11:20.713Z,48.07
2018-11-23T13:16:18.176Z,46.03
2018-11-23T13:21:15.717Z,41.43
2018-11-23T13:26:13.207Z,44.30
2018-11-23T13:31:10.673Z,43.97
2018-11-23T13:36:09.179Z,40.87
2018-11-23T13:41:06.801Z,42.70
2018-11-23T13:46:04.422Z,44.87
2018-11-23T13:51:02.044Z,33.87
2018-11-23T13:55:59.561Z,42.87
2018-11-23T14:00:57.079Z,48.37
2018-11-23T14:05:54.548Z,42.77
2018-11-23T14:10:52.429Z,47.60
2018-11-23T14:15:50.070Z,48.57
2018-11-23T14:20:49.068Z,49.37
2018-11-23T14:25:49.189Z,48.40
2018-11-23T14:30:48.463Z,56.23
2018-11-23T14:35:47.456Z,37.30
2018-11-23T14:40:46.323Z,51.10
2018-11-23T14:45:45.673Z,55.93
2018-11-23T14:50:50.589Z,49.23
2018-11-23T14:55:48.042Z,48.10
2018-11-23T15:00:45.536Z,47.67
2018-11-23T15:05:43.116Z,53.33
2018-11-23T15:10:40.626Z,51.30
2018-11-23T15:15:39.504Z,53.93
2018-11-23T15:20:40.246Z,46.87
2018-11-23T15:25:37.980Z,46.33
2018-11-23T15:30:37.532Z,49.27
2018-11-23T15:35:35.845Z,50.43
2018-11-23T15:40:33.530Z,56.43
2018-11-23T15:45:31.870Z,51.23
2018-11-23T15:50:32.608Z,53.40
2018-11-23T15:55:31.686Z,43.37
2018-11-23T16:00:32.765Z,54.10
2018-11-23T16:05:30.187Z,54.03
2018-11-23T16:10:29.051Z,50.87
2018-11-23T16:15:28.553Z,48.47
2018-11-23T16:20:28.674Z,49.60
2018-11-23T16:25:26.432Z,57.60
2018-11-23T16:30:27.249Z,50.97
2018-11-23T16:35:26.422Z,54.43
2018-11-23T16:40:25.309Z,49.43
2018-11-23T16:45:24.263Z,57.03
2018-11-23T16:50:21.801Z,54.63
2018-11-23T16:55:20.231Z,54.17
2018-11-23T17:00:21.757Z,56.33
2018-11-23T17:05:20.798Z,42.13
2018-11-23T17:10:18.745Z,44.77
2018-11-23T17:15:17.465Z,51.13
2018-11-23T17:20:16.264Z,48.23
2018-11-23T17:25:15.134Z,49.30
2018-11-23T17:30:16.524Z,58.83
2018-11-23T17:35:13.978Z,55.73
2018-11-23T17:40:13.672Z,69.70
2018-11-23T17:45:15.734Z,59.93
2018-11-23T17:50:15.184Z,70.47
2018-11-23T17:55:13.507Z,72.80
2018-11-23T18:00:14.680Z,71.17
2018-11-23T18:05:13.255Z,70.37
2018-11-23T18:10:14.014Z,75.30
2018-11-23T18:15:14.924Z,58.27
2018-11-23T18:20:13.569Z,60.60
2018-11-23T18:25:14.172Z,66.80
2018-11-23T18:30:13.749Z,60.83
2018-11-23T18:35:12.234Z,73.57
2018-11-23T18:40:12.052Z,65.00
2018-11-23T18:45:10.738Z,67.27
2018-11-23T18:50:12.094Z,65.97
2018-11-23T18:55:17.498Z,63.47
2018-11-23T19:00:10.691Z,73.70
2018-11-23T19:05:18.144Z,68.03
2018-11-23T19:10:15.581Z,59.37
2018-11-23T19:15:15.044Z,63.93
2018-11-23T19:20:15.401Z,71.43
2018-11-23T19:25:12.856Z,59.30
2018-11-23T19:30:13.082Z,68.30
2018-11-23T19:35:10.521Z,62.97
2018-11-23T19:40:09.486Z,64.53
2018-11-23T19:45:10.476Z,74.47
2018-11-23T19:50:13.598Z,65.10
2018-11-23T19:55:12.806Z,68.37
2018-11-23T20:00:18.256Z,70.80
2018-11-23T20:05:16.410Z,63.40
2018-11-23T20:10:15.710Z,71.43
2018-11-23T20:15:15.095Z,84.70
2018-11-23T20:20:14.094Z,68.23
2018-11-23T20:25:13.398Z,78.70
2018-11-23T20:30:14.660Z,68.77
2018-11-23T20:35:13.747Z,60.07
2018-11-23T20:40:15.540Z,57.10
2018-11-23T20:45:13.621Z,61.70
2018-11-23T20:50:13.991Z,68.83
2018-11-23T20:55:14.087Z,61.60
2018-11-23T21:00:14.474Z,56.73
2018-11-23T21:05:13.442Z,70.10
2018-11-23T21:10:19.975Z,56.90
2018-11-23T21:15:15.862Z,60.83
2018-11-23T21:20:13.387Z,72.00
2018-11-23T21:25:11.396Z,58.00
2018-11-23T21:30:15.657Z,68.33
2018-11-23T21:35:13.971Z,63.60
2018-11-23T21:40:13.771Z,63.10
2018-11-23T21:45:14.402Z,75.33
2018-11-23T21:50:15.897Z,65.97
2018-11-23T21:55:22.274Z,71.27
2018-11-23T22:00:21.414Z,83.37
2018-11-23T22:05:19.544Z,75.27
2018-11-23T22:10:18.268Z,52.40
2018-11-23T22:15:22.229Z,49.07
2018-11-23T22:20:21.179Z,54.63
2018-11-23T22:25:21.225Z,50.30
2018-11-23T22:30:28.977Z,51.90
2018-11-23T22:35:28.351Z,53.33
2018-11-23T22:40:26.394Z,48.27
2018-11-23T22:45:24.458Z,49.90
2018-11-23T22:50:23.230Z,47.27
2018-11-23T22:55:21.304Z,40.17
2018-11-23T23:00:40.339Z,39.40
2018-11-23T23:05:38.316Z,42.93
2018-11-23T23:10:57.997Z,46.57
2018-11-23T23:15:56.196Z,46.40
2018-11-23T23:20:54.243Z,45.53
2018-11-23T23:25:52.455Z,47.80
2018-11-23T23:30:50.582Z,58.10
2018-11-23T23:35:52.553Z,49.07
2018-11-23T23:40:56.577Z,41.97
2018-11-23T23:45:54.141Z,37.10
2018-11-23T23:50:58.629Z,40.03
2018-11-23T23:56:01.563Z,49.13
